Quincey Cenac — WDI9133 — position and weather

sailwx.info

Track history (hours):
 
Tides and Currents Weather Stations Pressure Air Temp Water Temp Dewpoint Dewpoint Depression Visibility Wind Speed Wind Dir Waves Ship Positions

Quincey Cenac

Owner: Cenac Marine Services, Houma, LA. More information available from US FCC via Universal Licensing System and Coast Guard Vessel Documentation Center.

Last reported at 2018-Jul-23 11:21 UTC. Time now 2018-Jul-23 11:31 UTC.
Position N 29°45' W 095°06'.

Length 22 m; draft 9.6 m.

Type: Tug. MMSI: 367745570.

Date/timePositionNaut miles runAvg speedWind from/ knotsBaromVisibWave heightAir tempDewpointWater temp
2018-Jul-23 11:21N 29°45' W 095°06'0 0.0
2018-Jul-23 11:00N 29°45' W 095°06'0 0.0
2018-Jul-23 10:18N 29°45' W 095°06'0 0.0
2018-Jul-23 09:51N 29°45' W 095°06'0 0.0
2018-Jul-23 09:27N 29°45' W 095°06'0 0.0
2018-Jul-23 08:51N 29°45' W 095°06'0 0.0
2018-Jul-23 08:30N 29°45' W 095°06'0 0.0
2018-Jul-23 07:54N 29°45' W 095°06'0 0.0
2018-Jul-23 07:27N 29°45' W 095°06'0 0.0
2018-Jul-23 07:00N 29°45' W 095°06'0 0.0
2018-Jul-23 06:30N 29°45' W 095°06'0 0.0
2018-Jul-23 06:00N 29°45' W 095°06'0 0.0
2018-Jul-23 05:24N 29°45' W 095°06'0 0.0
2018-Jul-23 05:00N 29°45' W 095°06'0 0.0
2018-Jul-23 04:24N 29°45' W 095°06'0 0.0
2018-Jul-22 09:24N 29°45' W 095°06'0 0.0
2018-Jul-22 08:57N 29°45' W 095°06'0 0.0
2018-Jul-22 08:30N 29°45' W 095°06'0 0.0
2018-Jul-22 08:00N 29°45' W 095°06'0 0.0
2018-Jul-22 07:03N 29°45' W 095°06'0 0.0
2018-Jul-22 07:00N 29°45' W 095°06'0 0.0
2018-Jul-22 06:30N 29°45' W 095°06'0 0.0
2018-Jul-22 05:57N 29°45' W 095°06'0 0.0
2018-Jul-22 05:27N 29°45' W 095°06'0 0.0
2018-Jul-22 04:57N 29°45' W 095°06'0 0.0
2018-Jul-22 04:03N 29°45' W 095°06'0 0.0
2018-Jul-22 03:45N 29°45' W 095°06'0 0.0
2018-Jul-22 03:30N 29°45' W 095°06'0 0.0
2018-Jul-22 03:00N 29°45' W 095°06'0 0.0
2018-Jul-22 01:41N 29°45' W 095°06'0 2.0
2018-Jul-22 01:28N 29°45' W 095°06'1 0.1
2018-Jul-21 16:17N 29°46' W 095°05'0 0.0
2018-Jul-21 14:59N 29°46' W 095°05'0 0.0
2018-Jul-21 14:02N 29°46' W 095°05'0 0.0
2018-Jul-21 12:50N 29°46' W 095°05'0 0.0
2018-Jul-21 12:14N 29°46' W 095°05'0 0.0
2018-Jul-21 11:49N 29°46' W 095°05'0 0.7
2018-Jul-21 11:30N 29°46' W 095°05'3 5.8
2018-Jul-21 10:56N 29°44' W 095°09'3 3.3
2018-Jul-21 09:59N 29°44' W 095°12'0 0.2
2018-Jul-21 09:25N 29°44' W 095°12'0 0.0
2018-Jul-21 08:31N 29°44' W 095°12'0 0.0
2018-Jul-21 08:28N 29°44' W 095°12'0 0.0
2018-Jul-21 06:58N 29°44' W 095°12'0 0.0
2018-Jul-21 06:25N 29°44' W 095°12'0 0.0
2018-Jul-21 05:40N 29°44' W 095°12'0 0.0
2018-Jul-20 13:03N 29°44' W 095°12'0 0.0
2018-Jul-20 12:54N 29°44' W 095°12'0 0.0
2018-Jul-20 12:30N 29°44' W 095°12'0 0.0
2018-Jul-20 11:48N 29°44' W 095°12'0 0.0
2018-Jul-20 11:30N 29°44' W 095°12'0 0.0
2018-Jul-20 11:00N 29°44' W 095°12'0 0.0
2018-Jul-20 10:24N 29°44' W 095°12'0 0.0
2018-Jul-20 09:57N 29°44' W 095°12'0 0.0
2018-Jul-20 09:30N 29°44' W 095°12'0 0.0
2018-Jul-20 09:00N 29°44' W 095°12'0 0.0
2018-Jul-20 08:30N 29°44' W 095°12'0 0.0
2018-Jul-20 08:00N 29°44' W 095°12'0 0.0
2018-Jul-20 07:12N 29°44' W 095°12'0 0.0
2018-Jul-20 07:00N 29°44' W 095°12'0 0.0
2018-Jul-20 06:30N 29°44' W 095°12'0 0.0
2018-Jul-20 06:00N 29°44' W 095°12'0 0.0
2018-Jul-20 05:30N 29°44' W 095°12'0 0.0
2018-Jul-20 05:00N 29°44' W 095°12'0 0.0
2018-Jul-20 04:30N 29°44' W 095°12'0 0.0
2018-Jul-19 13:13N 29°44' W 095°12'2 4.7
2018-Jul-19 12:48N 29°45' W 095°10'2 5.7
2018-Jul-19 12:27N 29°44' W 095°08'3 5.9
2018-Jul-19 11:58N 29°46' W 095°05'0 0.5
2018-Jul-19 11:30N 29°46' W 095°05'0 0.0
2018-Jul-19 10:51N 29°46' W 095°05'0 0.0
2018-Jul-19 10:30N 29°46' W 095°05'0 0.0
2018-Jul-19 08:48N 29°46' W 095°05'0 0.0
2018-Jul-19 08:30N 29°46' W 095°05'0 0.0
2018-Jul-19 08:00N 29°46' W 095°05'0 0.0
2018-Jul-19 07:30N 29°46' W 095°05'0 0.0
2018-Jul-19 06:48N 29°46' W 095°05'0 0.0
2018-Jul-19 06:27N 29°46' W 095°05'0 0.0
2018-Jul-19 05:57N 29°46' W 095°05'0 0.0
2018-Jul-19 05:30N 29°46' W 095°05'0 0.0
2018-Jul-19 05:00N 29°46' W 095°05'0 0.0
2018-Jul-19 04:24N 29°46' W 095°05'0 0.0
2018-Jul-19 04:00N 29°46' W 095°05'0 0.0
2018-Jul-19 03:30N 29°46' W 095°05'0 0.0
2018-Jul-19 02:57N 29°46' W 095°05'0 0.0
2018-Jul-19 02:21N 29°46' W 095°05'0 0.0
2018-Jul-18 19:01N 29°46' W 095°05'0 0.0
2018-Jul-18 18:55N 29°46' W 095°05'0 0.0
2018-Jul-18 18:30N 29°46' W 095°05'0 0.0
2018-Jul-18 18:00N 29°46' W 095°05'0 0.0
2018-Jul-18 17:30N 29°46' W 095°05'1 1.8
2018-Jul-18 16:43N 29°45' W 095°04'3 6.1
2018-Jul-18 16:13N 29°43' W 095°01'1 5.7
2018-Jul-18 16:00N 29°42' W 095°01'3 6.3
2018-Jul-18 15:30N 29°40' W 094°58'3 6.9
2018-Jul-18 15:00N 29°36' W 094°57'3 6.7
2018-Jul-18 14:30N 29°34' W 094°55'7 7.0
2018-Jul-18 13:29N 29°28' W 094°51'3 7.0
2018-Jul-18 13:00N 29°24' W 094°49'3 5.5
2018-Jul-18 12:29N 29°22' W 094°47'3 5.4
2018-Jul-18 12:00N 29°24' W 094°45'3 5.6
2018-Jul-18 11:30N 29°26' W 094°43'6 5.6
2018-Jul-18 10:29N 29°29' W 094°37'3 5.8
2018-Jul-18 10:00N 29°30' W 094°34'3 5.8
2018-Jul-18 09:29N 29°31' W 094°31'2 5.1
2018-Jul-18 09:00N 29°33' W 094°28'2 4.2
2018-Jul-18 08:30N 29°34' W 094°27'2 3.4
2018-Jul-18 08:00N 29°35' W 094°25'2 3.4
2018-Jul-18 07:30N 29°36' W 094°23'1 2.6
2018-Jul-18 07:00N 29°36' W 094°22'0 0.1
2018-Jul-18 06:30N 29°36' W 094°22'1 1.4
2018-Jul-18 06:00N 29°37' W 094°21'2 4.3
2018-Jul-18 05:30N 29°38' W 094°19'3 5.1
2018-Jul-18 05:00N 29°39' W 094°17'3 5.1
2018-Jul-18 04:30N 29°40' W 094°14'3 5.1
2018-Jul-18 04:00N 29°41' W 094°11'3 5.0
2018-Jul-18 03:30N 29°42' W 094°09'3 5.3
2018-Jul-18 03:00N 29°44' W 094°06'2 4.8
2018-Jul-18 02:30N 29°45' W 094°04'3 5.5
2018-Jul-18 02:00N 29°47' W 094°02'3 5.2
2018-Jul-18 01:30N 29°49' W 093°60'2 4.7
2018-Jul-18 01:00N 29°50' W 093°57'3 6.5
2018-Jul-18 00:30N 29°53' W 093°55'3 6.9
2018-Jul-18 00:00N 29°55' W 093°53'3 6.6
2018-Jul-17 23:31N 29°58' W 093°51'3 6.0
2018-Jul-17 23:00N 29°59' W 093°48'3 6.5
2018-Jul-17 22:30N 30°01' W 093°45'3 5.6
2018-Jul-17 22:00N 30°03' W 093°42'3 5.5
2018-Jul-17 21:28N 30°04' W 093°39'2 4.1
2018-Jul-17 20:55N 30°04' W 093°36'1 3.2
2018-Jul-17 20:30N 30°04' W 093°35'2 3.4
2018-Jul-17 20:00N 30°04' W 093°33'2 3.4
2018-Jul-17 19:30N 30°04' W 093°31'2 3.9
2018-Jul-17 19:00N 30°04' W 093°29'2 3.1
2018-Jul-17 18:30N 30°04' W 093°27'2 3.2
2018-Jul-17 17:59N 30°04' W 093°25'1 3.1
2018-Jul-17 17:30N 30°04' W 093°23'2 3.4
2018-Jul-17 17:00N 30°04' W 093°21'2 3.9
2018-Jul-17 16:30N 30°05' W 093°20'0 0.1
2018-Jul-17 15:59N 30°05' W 093°20'1 2.1
2018-Jul-17 15:30N 30°04' W 093°20'0 0.1
2018-Jul-17 14:59N 30°04' W 093°20'1 1.8
2018-Jul-17 14:30N 30°05' W 093°20'0 0.0
2018-Jul-17 14:00N 30°05' W 093°20'0 0.0
2018-Jul-17 13:30N 30°05' W 093°20'0 0.0
2018-Jul-17 13:00N 30°05' W 093°20'1 1.1
2018-Jul-17 12:30N 30°05' W 093°20'0 0.7
2018-Jul-17 12:00N 30°04' W 093°20'1 1.5
2018-Jul-17 11:30N 30°05' W 093°20'2 4.4
2018-Jul-17 11:00N 30°04' W 093°22'3 6.2
2018-Jul-17 10:30N 30°04' W 093°26'3 6.1
2018-Jul-17 10:00N 30°04' W 093°29'3 6.0
2018-Jul-17 09:30N 30°04' W 093°33'3 5.9
2018-Jul-17 09:00N 30°04' W 093°36'3 6.9
2018-Jul-17 08:30N 30°04' W 093°40'4 7.2
2018-Jul-17 08:00N 30°03' W 093°44'3 6.9
2018-Jul-17 07:30N 29°60' W 093°46'4 7.2
2018-Jul-17 07:00N 29°58' W 093°50'3 6.7
2018-Jul-17 06:30N 29°56' W 093°53'3 6.5
2018-Jul-17 06:00N 29°53' W 093°55'3 6.9
2018-Jul-17 05:30N 29°50' W 093°57'4 7.7
2018-Jul-17 05:00N 29°48' W 094°00'4 8.4
2018-Jul-17 04:30N 29°45' W 094°04'4 8.1
2018-Jul-17 04:00N 29°43' W 094°08'4 7.9
2018-Jul-17 03:30N 29°41' W 094°12'4 7.8
2018-Jul-17 03:00N 29°39' W 094°16'4 7.9
2018-Jul-17 02:30N 29°37' W 094°20'4 7.6
2018-Jul-17 02:00N 29°36' W 094°24'3 6.9
2018-Jul-17 01:30N 29°34' W 094°27'4 7.7
2018-Jul-17 01:00N 29°31' W 094°30'4 7.5
2018-Jul-17 00:27N 29°30' W 094°35'9 6.9
2018-Jul-16 23:11N 29°25' W 094°44'1 5.3
2018-Jul-16 22:58N 29°24' W 094°44'1 1.0
2018-Jul-16 22:28N 29°24' W 094°45'0 0.7
2018-Jul-16 22:00N 29°24' W 094°45'0 0.0
2018-Jul-16 21:27N 29°24' W 094°45'0 0.0
2018-Jul-16 21:00N 29°24' W 094°45'0 0.0
2018-Jul-16 15:42N 29°24' W 094°45'0 0.0
2018-Jul-16 15:30N 29°24' W 094°45'0 0.0
2018-Jul-16 14:51N 29°24' W 094°45'0 0.0
2018-Jul-16 14:12N 29°24' W 094°45'0 0.0
2018-Jul-16 13:57N 29°24' W 094°45'0 0.0
2018-Jul-16 13:29N 29°24' W 094°45'0 0.0
2018-Jul-16 13:00N 29°24' W 094°45'0 0.0
2018-Jul-16 12:27N 29°24' W 094°45'0 0.0
2018-Jul-16 12:00N 29°24' W 094°45'0 0.6
2018-Jul-16 11:30N 29°24' W 094°45'1 1.8
2018-Jul-16 11:00N 29°23' W 094°46'0 0.0
2018-Jul-16 10:28N 29°23' W 094°46'1 2.6
2018-Jul-16 09:59N 29°24' W 094°45'0 0.3
2018-Jul-16 09:30N 29°24' W 094°45'3 5.6
2018-Jul-16 09:00N 29°22' W 094°47'3 5.7
2018-Jul-16 08:30N 29°19' W 094°47'1 1.5
2018-Jul-16 07:53N 29°19' W 094°48'0 0.0
2018-Jul-16 07:29N 29°19' W 094°48'0 0.1
2018-Jul-16 06:58N 29°19' W 094°48'0 0.0
2018-Jul-16 06:22N 29°19' W 094°48'0 0.0
2018-Jul-16 05:58N 29°19' W 094°48'0 0.0
2018-Jul-16 05:19N 29°19' W 094°48'0 0.0
2018-Jul-16 04:58N 29°19' W 094°48'0 0.0
2018-Jul-16 04:28N 29°19' W 094°48'0 0.0
2018-Jul-16 03:13N 29°19' W 094°48'0 0.0
2018-Jul-16 02:46N 29°19' W 094°48'0 0.0
2018-Jul-16 02:22N 29°19' W 094°48'0 0.0
2018-Jul-16 01:52N 29°19' W 094°48'0 0.0
2018-Jul-16 01:28N 29°19' W 094°48'0 0.0
2018-Jul-16 00:58N 29°19' W 094°48'0 0.0
2018-Jul-16 00:28N 29°19' W 094°48'0 0.0
2018-Jul-15 23:58N 29°19' W 094°48'0 0.0
2018-Jul-15 23:28N 29°19' W 094°48'0 0.0
2018-Jul-15 22:58N 29°19' W 094°48'0 0.0
2018-Jul-15 22:22N 29°19' W 094°48'0 0.0
2018-Jul-15 21:52N 29°19' W 094°48'0 0.0
2018-Jul-15 21:28N 29°19' W 094°48'0 0.0
2018-Jul-15 20:58N 29°19' W 094°48'0 0.0
2018-Jul-15 20:25N 29°19' W 094°48'0 0.0
2018-Jul-15 19:58N 29°19' W 094°48'0 0.0
2018-Jul-15 19:22N 29°19' W 094°48'0 0.0
2018-Jul-15 18:58N 29°19' W 094°48'0 0.0
2018-Jul-15 18:28N 29°19' W 094°48'0 0.0
2018-Jul-15 17:58N 29°19' W 094°48'0 0.0
2018-Jul-15 17:28N 29°19' W 094°48'0 0.0
2018-Jul-15 16:58N 29°19' W 094°48'0 0.0
2018-Jul-15 16:28N 29°19' W 094°48'0 0.0
2018-Jul-15 15:55N 29°19' W 094°48'0 0.0
2018-Jul-15 15:28N 29°19' W 094°48'0 0.0
2018-Jul-15 14:58N 29°19' W 094°48'0 0.0
2018-Jul-15 14:22N 29°19' W 094°48'0 0.0
2018-Jul-15 13:58N 29°19' W 094°48'0 0.0
2018-Jul-15 13:30N 29°19' W 094°48'0 0.2
2018-Jul-15 13:00N 29°19' W 094°49'0 0.0
2018-Jul-15 12:30N 29°19' W 094°49'0 0.1
2018-Jul-15 11:59N 29°19' W 094°49'0 0.4
2018-Jul-15 11:30N 29°19' W 094°48'0 0.0
2018-Jul-15 11:00N 29°19' W 094°48'0 0.0
2018-Jul-15 10:29N 29°19' W 094°48'0 0.0
2018-Jul-15 10:00N 29°19' W 094°48'0 0.0
2018-Jul-15 09:30N 29°19' W 094°48'0 0.0
2018-Jul-15 09:00N 29°19' W 094°48'0 0.0
2018-Jul-15 08:30N 29°19' W 094°48'0 0.0
2018-Jul-15 08:00N 29°19' W 094°48'0 0.0
2018-Jul-15 07:30N 29°19' W 094°48'0 0.0
2018-Jul-15 07:00N 29°19' W 094°48'0 0.0
2018-Jul-15 06:30N 29°19' W 094°48'0 0.6
2018-Jul-15 06:00N 29°19' W 094°48'1 2.5
2018-Jul-15 05:30N 29°19' W 094°47'3 5.8
2018-Jul-15 04:59N 29°22' W 094°47'3 5.6
2018-Jul-15 04:29N 29°24' W 094°45'3 6.2
2018-Jul-15 03:56N 29°26' W 094°42'3 5.6
2018-Jul-15 03:28N 29°28' W 094°39'5 5.5
2018-Jul-15 02:37N 29°30' W 094°34'1 5.1
2018-Jul-15 02:30N 29°30' W 094°34'3 5.4
2018-Jul-15 01:59N 29°31' W 094°31'4 5.2
2018-Jul-15 01:16N 29°34' W 094°28'2 4.9
2018-Jul-15 00:48N 29°34' W 094°25'2 4.5
2018-Jul-15 00:27N 29°36' W 094°25'2 4.4
2018-Jul-14 23:55N 29°36' W 094°22'2 4.8
2018-Jul-14 23:30N 29°37' W 094°20'2 4.9
2018-Jul-14 23:00N 29°38' W 094°18'2 4.3
2018-Jul-14 22:30N 29°39' W 094°15'2 4.5
2018-Jul-14 22:01N 29°40' W 094°13'2 4.9
2018-Jul-14 21:30N 29°41' W 094°10'2 4.3
2018-Jul-14 21:00N 29°42' W 094°08'2 3.4
2018-Jul-14 20:30N 29°43' W 094°07'3 5.3
2018-Jul-14 20:00N 29°45' W 094°04'3 5.2
2018-Jul-14 19:30N 29°47' W 094°02'3 5.2
2018-Jul-14 19:00N 29°48' W 093°60'2 3.6
2018-Jul-14 18:31N 29°49' W 093°58'3 5.2
2018-Jul-14 18:01N 29°51' W 093°56'3 5.9
2018-Jul-14 17:30N 29°54' W 093°54'3 5.9
2018-Jul-14 17:01N 29°56' W 093°52'3 5.5
2018-Jul-14 16:30N 29°58' W 093°50'3 5.8
2018-Jul-14 16:00N 29°59' W 093°47'3 5.7
2018-Jul-14 15:31N 30°01' W 093°45'3 5.2
2018-Jul-14 14:59N 30°03' W 093°43'2 4.9
2018-Jul-14 14:31N 30°04' W 093°40'4 4.3
2018-Jul-14 13:29N 30°04' W 093°35'2 3.9
2018-Jul-14 13:00N 30°04' W 093°33'2 3.8
2018-Jul-14 12:30N 30°04' W 093°31'2 3.9
2018-Jul-14 12:00N 30°04' W 093°28'2 4.2
2018-Jul-14 11:31N 30°04' W 093°26'2 4.0
2018-Jul-14 11:00N 30°04' W 093°24'2 3.6
2018-Jul-14 10:30N 30°04' W 093°22'2 3.4
2018-Jul-14 10:00N 30°05' W 093°20'2 3.4
2018-Jul-14 09:30N 30°06' W 093°20'2 3.1
2018-Jul-14 08:59N 30°08' W 093°20'0 0.0
2018-Jul-14 08:29N 30°08' W 093°20'0 0.2
2018-Jul-14 07:59N 30°08' W 093°19'0 0.6
2018-Jul-14 07:29N 30°08' W 093°19'0 0.0
2018-Jul-14 06:59N 30°08' W 093°19'0 0.0
2018-Jul-14 06:29N 30°08' W 093°19'0 0.0
2018-Jul-14 05:59N 30°08' W 093°19'0 0.0
2018-Jul-14 05:29N 30°08' W 093°19'0 0.0
2018-Jul-14 04:59N 30°08' W 093°19'0 0.0
2018-Jul-14 04:29N 30°08' W 093°19'0 0.0
2018-Jul-14 03:59N 30°08' W 093°19'0 0.0
2018-Jul-14 03:29N 30°08' W 093°19'0 0.0
2018-Jul-14 02:59N 30°08' W 093°19'0 0.0
2018-Jul-14 02:29N 30°08' W 093°19'0 0.0
2018-Jul-14 01:59N 30°08' W 093°19'0 0.0
2018-Jul-14 01:30N 30°08' W 093°19'0 0.0
2018-Jul-14 01:00N 30°08' W 093°19'0 0.0
2018-Jul-14 00:27N 30°08' W 093°19'0 0.0
2018-Jul-13 23:54N 30°08' W 093°19'0 0.0
2018-Jul-13 23:30N 30°08' W 093°19'0 0.0
2018-Jul-13 23:00N 30°08' W 093°19'0 0.0
2018-Jul-13 22:30N 30°08' W 093°19'0 0.0
2018-Jul-13 22:00N 30°08' W 093°19'0 0.0
2018-Jul-13 21:25N 30°08' W 093°19'0 0.0
2018-Jul-13 21:00N 30°08' W 093°19'0 0.0
2018-Jul-13 20:24N 30°08' W 093°19'0 0.0
2018-Jul-13 19:59N 30°08' W 093°19'0 0.0
2018-Jul-13 19:28N 30°08' W 093°19'0 0.0
2018-Jul-13 18:59N 30°08' W 093°19'0 0.0
2018-Jul-13 18:30N 30°08' W 093°19'0 0.0
2018-Jul-13 17:59N 30°08' W 093°19'0 0.0
2018-Jul-13 17:30N 30°08' W 093°19'0 0.0
2018-Jul-13 17:00N 30°08' W 093°19'0 0.0
2018-Jul-13 16:29N 30°08' W 093°19'0 0.0
2018-Jul-13 16:00N 30°08' W 093°19'0 0.1
2018-Jul-13 15:30N 30°08' W 093°19'0 0.9
2018-Jul-13 15:00N 30°08' W 093°20'4 3.7
2018-Jul-13 14:00N 30°04' W 093°21'1 1.8
2018-Jul-13 13:30N 30°05' W 093°20'0 0.0
2018-Jul-13 13:00N 30°05' W 093°20'0 0.0
2018-Jul-13 12:30N 30°05' W 093°20'0 0.0
2018-Jul-13 12:00N 30°05' W 093°20'1 1.1
2018-Jul-13 11:30N 30°05' W 093°20'  
Track history (hours):
 
Tides and Currents Weather Stations Pressure Air Temp Water Temp Dewpoint Dewpoint Depression Visibility Wind Speed Wind Dir Waves Ship Positions

Quincey Cenac

Owner: Cenac Marine Services, Houma, LA. More information available from US FCC via Universal Licensing System and Coast Guard Vessel Documentation Center.

Last reported at 2018-Jul-23 11:21 UTC. Time now 2018-Jul-23 11:31 UTC.
Position N 29°45' W 095°06'.

Length 22 m; draft 9.6 m.

Type: Tug. MMSI: 367745570.

Date/timePositionNaut miles runAvg speedWind from/ knotsBaromVisibWave heightAir tempDewpointWater temp
2018-Jul-23 11:21N 29°45' W 095°06'0 0.0
2018-Jul-23 11:00N 29°45' W 095°06'0 0.0
2018-Jul-23 10:18N 29°45' W 095°06'0 0.0
2018-Jul-23 09:51N 29°45' W 095°06'0 0.0
2018-Jul-23 09:27N 29°45' W 095°06'0 0.0
2018-Jul-23 08:51N 29°45' W 095°06'0 0.0
2018-Jul-23 08:30N 29°45' W 095°06'0 0.0
2018-Jul-23 07:54N 29°45' W 095°06'0 0.0
2018-Jul-23 07:27N 29°45' W 095°06'0 0.0
2018-Jul-23 07:00N 29°45' W 095°06'0 0.0
2018-Jul-23 06:30N 29°45' W 095°06'0 0.0
2018-Jul-23 06:00N 29°45' W 095°06'0 0.0
2018-Jul-23 05:24N 29°45' W 095°06'0 0.0
2018-Jul-23 05:00N 29°45' W 095°06'0 0.0
2018-Jul-23 04:24N 29°45' W 095°06'0 0.0
2018-Jul-22 09:24N 29°45' W 095°06'0 0.0
2018-Jul-22 08:57N 29°45' W 095°06'0 0.0
2018-Jul-22 08:30N 29°45' W 095°06'0 0.0
2018-Jul-22 08:00N 29°45' W 095°06'0 0.0
2018-Jul-22 07:03N 29°45' W 095°06'0 0.0
2018-Jul-22 07:00N 29°45' W 095°06'0 0.0
2018-Jul-22 06:30N 29°45' W 095°06'0 0.0
2018-Jul-22 05:57N 29°45' W 095°06'0 0.0
2018-Jul-22 05:27N 29°45' W 095°06'0 0.0
2018-Jul-22 04:57N 29°45' W 095°06'0 0.0
2018-Jul-22 04:03N 29°45' W 095°06'0 0.0
2018-Jul-22 03:45N 29°45' W 095°06'0 0.0
2018-Jul-22 03:30N 29°45' W 095°06'0 0.0
2018-Jul-22 03:00N 29°45' W 095°06'0 0.0
2018-Jul-22 01:41N 29°45' W 095°06'0 2.0
2018-Jul-22 01:28N 29°45' W 095°06'1 0.1
2018-Jul-21 16:17N 29°46' W 095°05'0 0.0
2018-Jul-21 14:59N 29°46' W 095°05'0 0.0
2018-Jul-21 14:02N 29°46' W 095°05'0 0.0
2018-Jul-21 12:50N 29°46' W 095°05'0 0.0
2018-Jul-21 12:14N 29°46' W 095°05'0 0.0
2018-Jul-21 11:49N 29°46' W 095°05'0 0.7
2018-Jul-21 11:30N 29°46' W 095°05'3 5.8
2018-Jul-21 10:56N 29°44' W 095°09'3 3.3
2018-Jul-21 09:59N 29°44' W 095°12'0 0.2
2018-Jul-21 09:25N 29°44' W 095°12'0 0.0
2018-Jul-21 08:31N 29°44' W 095°12'0 0.0
2018-Jul-21 08:28N 29°44' W 095°12'0 0.0
2018-Jul-21 06:58N 29°44' W 095°12'0 0.0
2018-Jul-21 06:25N 29°44' W 095°12'0 0.0
2018-Jul-21 05:40N 29°44' W 095°12'0 0.0
2018-Jul-20 13:03N 29°44' W 095°12'0 0.0
2018-Jul-20 12:54N 29°44' W 095°12'0 0.0
2018-Jul-20 12:30N 29°44' W 095°12'0 0.0
2018-Jul-20 11:48N 29°44' W 095°12'0 0.0
2018-Jul-20 11:30N 29°44' W 095°12'0 0.0
2018-Jul-20 11:00N 29°44' W 095°12'0 0.0
2018-Jul-20 10:24N 29°44' W 095°12'0 0.0
2018-Jul-20 09:57N 29°44' W 095°12'0 0.0
2018-Jul-20 09:30N 29°44' W 095°12'0 0.0
2018-Jul-20 09:00N 29°44' W 095°12'0 0.0
2018-Jul-20 08:30N 29°44' W 095°12'0 0.0
2018-Jul-20 08:00N 29°44' W 095°12'0 0.0
2018-Jul-20 07:12N 29°44' W 095°12'0 0.0
2018-Jul-20 07:00N 29°44' W 095°12'0 0.0
2018-Jul-20 06:30N 29°44' W 095°12'0 0.0
2018-Jul-20 06:00N 29°44' W 095°12'0 0.0
2018-Jul-20 05:30N 29°44' W 095°12'0 0.0
2018-Jul-20 05:00N 29°44' W 095°12'0 0.0
2018-Jul-20 04:30N 29°44' W 095°12'0 0.0
2018-Jul-19 13:13N 29°44' W 095°12'2 4.7
2018-Jul-19 12:48N 29°45' W 095°10'2 5.7
2018-Jul-19 12:27N 29°44' W 095°08'3 5.9
2018-Jul-19 11:58N 29°46' W 095°05'0 0.5
2018-Jul-19 11:30N 29°46' W 095°05'0 0.0
2018-Jul-19 10:51N 29°46' W 095°05'0 0.0
2018-Jul-19 10:30N 29°46' W 095°05'0 0.0
2018-Jul-19 08:48N 29°46' W 095°05'0 0.0
2018-Jul-19 08:30N 29°46' W 095°05'0 0.0
2018-Jul-19 08:00N 29°46' W 095°05'0 0.0
2018-Jul-19 07:30N 29°46' W 095°05'0 0.0
2018-Jul-19 06:48N 29°46' W 095°05'0 0.0
2018-Jul-19 06:27N 29°46' W 095°05'0 0.0
2018-Jul-19 05:57N 29°46' W 095°05'0 0.0
2018-Jul-19 05:30N 29°46' W 095°05'0 0.0
2018-Jul-19 05:00N 29°46' W 095°05'0 0.0
2018-Jul-19 04:24N 29°46' W 095°05'0 0.0
2018-Jul-19 04:00N 29°46' W 095°05'0 0.0
2018-Jul-19 03:30N 29°46' W 095°05'0 0.0
2018-Jul-19 02:57N 29°46' W 095°05'0 0.0
2018-Jul-19 02:21N 29°46' W 095°05'0 0.0
2018-Jul-18 19:01N 29°46' W 095°05'0 0.0
2018-Jul-18 18:55N 29°46' W 095°05'0 0.0
2018-Jul-18 18:30N 29°46' W 095°05'0 0.0
2018-Jul-18 18:00N 29°46' W 095°05'0 0.0
2018-Jul-18 17:30N 29°46' W 095°05'1 1.8
2018-Jul-18 16:43N 29°45' W 095°04'3 6.1
2018-Jul-18 16:13N 29°43' W 095°01'1 5.7
2018-Jul-18 16:00N 29°42' W 095°01'3 6.3
2018-Jul-18 15:30N 29°40' W 094°58'3 6.9
2018-Jul-18 15:00N 29°36' W 094°57'3 6.7
2018-Jul-18 14:30N 29°34' W 094°55'7 7.0
2018-Jul-18 13:29N 29°28' W 094°51'3 7.0
2018-Jul-18 13:00N 29°24' W 094°49'3 5.5
2018-Jul-18 12:29N 29°22' W 094°47'3 5.4
2018-Jul-18 12:00N 29°24' W 094°45'3 5.6
2018-Jul-18 11:30N 29°26' W 094°43'6 5.6
2018-Jul-18 10:29N 29°29' W 094°37'3 5.8
2018-Jul-18 10:00N 29°30' W 094°34'3 5.8
2018-Jul-18 09:29N 29°31' W 094°31'2 5.1
2018-Jul-18 09:00N 29°33' W 094°28'2 4.2
2018-Jul-18 08:30N 29°34' W 094°27'2 3.4
2018-Jul-18 08:00N 29°35' W 094°25'2 3.4
2018-Jul-18 07:30N 29°36' W 094°23'1 2.6
2018-Jul-18 07:00N 29°36' W 094°22'0 0.1
2018-Jul-18 06:30N 29°36' W 094°22'1 1.4
2018-Jul-18 06:00N 29°37' W 094°21'2 4.3
2018-Jul-18 05:30N 29°38' W 094°19'3 5.1
2018-Jul-18 05:00N 29°39' W 094°17'3 5.1
2018-Jul-18 04:30N 29°40' W 094°14'3 5.1
2018-Jul-18 04:00N 29°41' W 094°11'3 5.0
2018-Jul-18 03:30N 29°42' W 094°09'3 5.3
2018-Jul-18 03:00N 29°44' W 094°06'2 4.8
2018-Jul-18 02:30N 29°45' W 094°04'3 5.5
2018-Jul-18 02:00N 29°47' W 094°02'3 5.2
2018-Jul-18 01:30N 29°49' W 093°60'2 4.7
2018-Jul-18 01:00N 29°50' W 093°57'3 6.5
2018-Jul-18 00:30N 29°53' W 093°55'3 6.9
2018-Jul-18 00:00N 29°55' W 093°53'3 6.6
2018-Jul-17 23:31N 29°58' W 093°51'3 6.0
2018-Jul-17 23:00N 29°59' W 093°48'3 6.5
2018-Jul-17 22:30N 30°01' W 093°45'3 5.6
2018-Jul-17 22:00N 30°03' W 093°42'3 5.5
2018-Jul-17 21:28N 30°04' W 093°39'2 4.1
2018-Jul-17 20:55N 30°04' W 093°36'1 3.2
2018-Jul-17 20:30N 30°04' W 093°35'2 3.4
2018-Jul-17 20:00N 30°04' W 093°33'2 3.4
2018-Jul-17 19:30N 30°04' W 093°31'2 3.9
2018-Jul-17 19:00N 30°04' W 093°29'2 3.1
2018-Jul-17 18:30N 30°04' W 093°27'2 3.2
2018-Jul-17 17:59N 30°04' W 093°25'1 3.1
2018-Jul-17 17:30N 30°04' W 093°23'2 3.4
2018-Jul-17 17:00N 30°04' W 093°21'2 3.9
2018-Jul-17 16:30N 30°05' W 093°20'0 0.1
2018-Jul-17 15:59N 30°05' W 093°20'1 2.1
2018-Jul-17 15:30N 30°04' W 093°20'0 0.1
2018-Jul-17 14:59N 30°04' W 093°20'1 1.8
2018-Jul-17 14:30N 30°05' W 093°20'0 0.0
2018-Jul-17 14:00N 30°05' W 093°20'0 0.0
2018-Jul-17 13:30N 30°05' W 093°20'0 0.0
2018-Jul-17 13:00N 30°05' W 093°20'1 1.1
2018-Jul-17 12:30N 30°05' W 093°20'0 0.7
2018-Jul-17 12:00N 30°04' W 093°20'1 1.5
2018-Jul-17 11:30N 30°05' W 093°20'2 4.4
2018-Jul-17 11:00N 30°04' W 093°22'3 6.2
2018-Jul-17 10:30N 30°04' W 093°26'3 6.1
2018-Jul-17 10:00N 30°04' W 093°29'3 6.0
2018-Jul-17 09:30N 30°04' W 093°33'3 5.9
2018-Jul-17 09:00N 30°04' W 093°36'3 6.9
2018-Jul-17 08:30N 30°04' W 093°40'4 7.2
2018-Jul-17 08:00N 30°03' W 093°44'3 6.9
2018-Jul-17 07:30N 29°60' W 093°46'4 7.2
2018-Jul-17 07:00N 29°58' W 093°50'3 6.7
2018-Jul-17 06:30N 29°56' W 093°53'3 6.5
2018-Jul-17 06:00N 29°53' W 093°55'3 6.9
2018-Jul-17 05:30N 29°50' W 093°57'4 7.7
2018-Jul-17 05:00N 29°48' W 094°00'4 8.4
2018-Jul-17 04:30N 29°45' W 094°04'4 8.1
2018-Jul-17 04:00N 29°43' W 094°08'4 7.9
2018-Jul-17 03:30N 29°41' W 094°12'4 7.8
2018-Jul-17 03:00N 29°39' W 094°16'4 7.9
2018-Jul-17 02:30N 29°37' W 094°20'4 7.6
2018-Jul-17 02:00N 29°36' W 094°24'3 6.9
2018-Jul-17 01:30N 29°34' W 094°27'4 7.7
2018-Jul-17 01:00N 29°31' W 094°30'4 7.5
2018-Jul-17 00:27N 29°30' W 094°35'9 6.9
2018-Jul-16 23:11N 29°25' W 094°44'1 5.3
2018-Jul-16 22:58N 29°24' W 094°44'1 1.0
2018-Jul-16 22:28N 29°24' W 094°45'0 0.7
2018-Jul-16 22:00N 29°24' W 094°45'0 0.0
2018-Jul-16 21:27N 29°24' W 094°45'0 0.0
2018-Jul-16 21:00N 29°24' W 094°45'0 0.0
2018-Jul-16 15:42N 29°24' W 094°45'0 0.0
2018-Jul-16 15:30N 29°24' W 094°45'0 0.0
2018-Jul-16 14:51N 29°24' W 094°45'0 0.0
2018-Jul-16 14:12N 29°24' W 094°45'0 0.0
2018-Jul-16 13:57N 29°24' W 094°45'0 0.0
2018-Jul-16 13:29N 29°24' W 094°45'0 0.0
2018-Jul-16 13:00N 29°24' W 094°45'0 0.0
2018-Jul-16 12:27N 29°24' W 094°45'0 0.0
2018-Jul-16 12:00N 29°24' W 094°45'0 0.6
2018-Jul-16 11:30N 29°24' W 094°45'1 1.8
2018-Jul-16 11:00N 29°23' W 094°46'0 0.0
2018-Jul-16 10:28N 29°23' W 094°46'1 2.6
2018-Jul-16 09:59N 29°24' W 094°45'0 0.3
2018-Jul-16 09:30N 29°24' W 094°45'3 5.6
2018-Jul-16 09:00N 29°22' W 094°47'3 5.7
2018-Jul-16 08:30N 29°19' W 094°47'1 1.5
2018-Jul-16 07:53N 29°19' W 094°48'0 0.0
2018-Jul-16 07:29N 29°19' W 094°48'0 0.1
2018-Jul-16 06:58N 29°19' W 094°48'0 0.0
2018-Jul-16 06:22N 29°19' W 094°48'0 0.0
2018-Jul-16 05:58N 29°19' W 094°48'0 0.0
2018-Jul-16 05:19N 29°19' W 094°48'0 0.0
2018-Jul-16 04:58N 29°19' W 094°48'0 0.0
2018-Jul-16 04:28N 29°19' W 094°48'0 0.0
2018-Jul-16 03:13N 29°19' W 094°48'0 0.0
2018-Jul-16 02:46N 29°19' W 094°48'0 0.0
2018-Jul-16 02:22N 29°19' W 094°48'0 0.0
2018-Jul-16 01:52N 29°19' W 094°48'0 0.0
2018-Jul-16 01:28N 29°19' W 094°48'0 0.0
2018-Jul-16 00:58N 29°19' W 094°48'0 0.0
2018-Jul-16 00:28N 29°19' W 094°48'0 0.0
2018-Jul-15 23:58N 29°19' W 094°48'0 0.0
2018-Jul-15 23:28N 29°19' W 094°48'0 0.0
2018-Jul-15 22:58N 29°19' W 094°48'0 0.0
2018-Jul-15 22:22N 29°19' W 094°48'0 0.0
2018-Jul-15 21:52N 29°19' W 094°48'0 0.0
2018-Jul-15 21:28N 29°19' W 094°48'0 0.0
2018-Jul-15 20:58N 29°19' W 094°48'0 0.0
2018-Jul-15 20:25N 29°19' W 094°48'0 0.0
2018-Jul-15 19:58N 29°19' W 094°48'0 0.0
2018-Jul-15 19:22N 29°19' W 094°48'0 0.0
2018-Jul-15 18:58N 29°19' W 094°48'0 0.0
2018-Jul-15 18:28N 29°19' W 094°48'0 0.0
2018-Jul-15 17:58N 29°19' W 094°48'0 0.0
2018-Jul-15 17:28N 29°19' W 094°48'0 0.0
2018-Jul-15 16:58N 29°19' W 094°48'0 0.0
2018-Jul-15 16:28N 29°19' W 094°48'0 0.0
2018-Jul-15 15:55N 29°19' W 094°48'0 0.0
2018-Jul-15 15:28N 29°19' W 094°48'0 0.0
2018-Jul-15 14:58N 29°19' W 094°48'0 0.0
2018-Jul-15 14:22N 29°19' W 094°48'0 0.0
2018-Jul-15 13:58N 29°19' W 094°48'0 0.0
2018-Jul-15 13:30N 29°19' W 094°48'0 0.2
2018-Jul-15 13:00N 29°19' W 094°49'0 0.0
2018-Jul-15 12:30N 29°19' W 094°49'0 0.1
2018-Jul-15 11:59N 29°19' W 094°49'0 0.4
2018-Jul-15 11:30N 29°19' W 094°48'0 0.0
2018-Jul-15 11:00N 29°19' W 094°48'0 0.0
2018-Jul-15 10:29N 29°19' W 094°48'0 0.0
2018-Jul-15 10:00N 29°19' W 094°48'0 0.0
2018-Jul-15 09:30N 29°19' W 094°48'0 0.0
2018-Jul-15 09:00N 29°19' W 094°48'0 0.0
2018-Jul-15 08:30N 29°19' W 094°48'0 0.0
2018-Jul-15 08:00N 29°19' W 094°48'0 0.0
2018-Jul-15 07:30N 29°19' W 094°48'0 0.0
2018-Jul-15 07:00N 29°19' W 094°48'0 0.0
2018-Jul-15 06:30N 29°19' W 094°48'0 0.6
2018-Jul-15 06:00N 29°19' W 094°48'1 2.5
2018-Jul-15 05:30N 29°19' W 094°47'3 5.8
2018-Jul-15 04:59N 29°22' W 094°47'3 5.6
2018-Jul-15 04:29N 29°24' W 094°45'3 6.2
2018-Jul-15 03:56N 29°26' W 094°42'3 5.6
2018-Jul-15 03:28N 29°28' W 094°39'5 5.5
2018-Jul-15 02:37N 29°30' W 094°34'1 5.1
2018-Jul-15 02:30N 29°30' W 094°34'3 5.4
2018-Jul-15 01:59N 29°31' W 094°31'4 5.2
2018-Jul-15 01:16N 29°34' W 094°28'2 4.9
2018-Jul-15 00:48N 29°34' W 094°25'2 4.5
2018-Jul-15 00:27N 29°36' W 094°25'2 4.4
2018-Jul-14 23:55N 29°36' W 094°22'2 4.8
2018-Jul-14 23:30N 29°37' W 094°20'2 4.9
2018-Jul-14 23:00N 29°38' W 094°18'2 4.3
2018-Jul-14 22:30N 29°39' W 094°15'2 4.5
2018-Jul-14 22:01N 29°40' W 094°13'2 4.9
2018-Jul-14 21:30N 29°41' W 094°10'2 4.3
2018-Jul-14 21:00N 29°42' W 094°08'2 3.4
2018-Jul-14 20:30N 29°43' W 094°07'3 5.3
2018-Jul-14 20:00N 29°45' W 094°04'3 5.2
2018-Jul-14 19:30N 29°47' W 094°02'3 5.2
2018-Jul-14 19:00N 29°48' W 093°60'2 3.6
2018-Jul-14 18:31N 29°49' W 093°58'3 5.2
2018-Jul-14 18:01N 29°51' W 093°56'3 5.9
2018-Jul-14 17:30N 29°54' W 093°54'3 5.9
2018-Jul-14 17:01N 29°56' W 093°52'3 5.5
2018-Jul-14 16:30N 29°58' W 093°50'3 5.8
2018-Jul-14 16:00N 29°59' W 093°47'3 5.7
2018-Jul-14 15:31N 30°01' W 093°45'3 5.2
2018-Jul-14 14:59N 30°03' W 093°43'2 4.9
2018-Jul-14 14:31N 30°04' W 093°40'4 4.3
2018-Jul-14 13:29N 30°04' W 093°35'2 3.9
2018-Jul-14 13:00N 30°04' W 093°33'2 3.8
2018-Jul-14 12:30N 30°04' W 093°31'2 3.9
2018-Jul-14 12:00N 30°04' W 093°28'2 4.2
2018-Jul-14 11:31N 30°04' W 093°26'2 4.0
2018-Jul-14 11:00N 30°04' W 093°24'2 3.6
2018-Jul-14 10:30N 30°04' W 093°22'2 3.4
2018-Jul-14 10:00N 30°05' W 093°20'2 3.4
2018-Jul-14 09:30N 30°06' W 093°20'2 3.1
2018-Jul-14 08:59N 30°08' W 093°20'0 0.0
2018-Jul-14 08:29N 30°08' W 093°20'0 0.2
2018-Jul-14 07:59N 30°08' W 093°19'0 0.6
2018-Jul-14 07:29N 30°08' W 093°19'0 0.0
2018-Jul-14 06:59N 30°08' W 093°19'0 0.0
2018-Jul-14 06:29N 30°08' W 093°19'0 0.0
2018-Jul-14 05:59N 30°08' W 093°19'0 0.0
2018-Jul-14 05:29N 30°08' W 093°19'0 0.0
2018-Jul-14 04:59N 30°08' W 093°19'0 0.0
2018-Jul-14 04:29N 30°08' W 093°19'0 0.0
2018-Jul-14 03:59N 30°08' W 093°19'0 0.0
2018-Jul-14 03:29N 30°08' W 093°19'0 0.0
2018-Jul-14 02:59N 30°08' W 093°19'0 0.0
2018-Jul-14 02:29N 30°08' W 093°19'0 0.0
2018-Jul-14 01:59N 30°08' W 093°19'0 0.0
2018-Jul-14 01:30N 30°08' W 093°19'0 0.0
2018-Jul-14 01:00N 30°08' W 093°19'0 0.0
2018-Jul-14 00:27N 30°08' W 093°19'0 0.0
2018-Jul-13 23:54N 30°08' W 093°19'0 0.0
2018-Jul-13 23:30N 30°08' W 093°19'0 0.0
2018-Jul-13 23:00N 30°08' W 093°19'0 0.0
2018-Jul-13 22:30N 30°08' W 093°19'0 0.0
2018-Jul-13 22:00N 30°08' W 093°19'0 0.0
2018-Jul-13 21:25N 30°08' W 093°19'0 0.0
2018-Jul-13 21:00N 30°08' W 093°19'0 0.0
2018-Jul-13 20:24N 30°08' W 093°19'0 0.0
2018-Jul-13 19:59N 30°08' W 093°19'0 0.0
2018-Jul-13 19:28N 30°08' W 093°19'0 0.0
2018-Jul-13 18:59N 30°08' W 093°19'0 0.0
2018-Jul-13 18:30N 30°08' W 093°19'0 0.0
2018-Jul-13 17:59N 30°08' W 093°19'0 0.0
2018-Jul-13 17:30N 30°08' W 093°19'0 0.0
2018-Jul-13 17:00N 30°08' W 093°19'0 0.0
2018-Jul-13 16:29N 30°08' W 093°19'0 0.0
2018-Jul-13 16:00N 30°08' W 093°19'0 0.1
2018-Jul-13 15:30N 30°08' W 093°19'0 0.9
2018-Jul-13 15:00N 30°08' W 093°20'4 3.7
2018-Jul-13 14:00N 30°04' W 093°21'1 1.8
2018-Jul-13 13:30N 30°05' W 093°20'0 0.0
2018-Jul-13 13:00N 30°05' W 093°20'0 0.0
2018-Jul-13 12:30N 30°05' W 093°20'0 0.0
2018-Jul-13 12:00N 30°05' W 093°20'1 1.1
2018-Jul-13 11:30N 30°05' W 093°20'  

Dump ship's entire track history